Time;durP1;ratioP1;P1;durP2;ratioP2;P2;SDS_P1;SDS_P2;PMS_P1;PMS_P2;Temp;Humidity;BMP_temperature;BMP_pressure;BME280_temperature;BME280_humidity;BME280_pressure;Samples;Min_cycle;Max_cycle;Signal;HPM_P1;HPM_P2
2023/01/03 00:01:43;;;;;;;4.35;2.60;;;;;;;8.13;82.59;99627.84;5027906;28;20052;-80
2023/01/03 00:04:08;;;;;;;4.10;2.08;;;;;;;8.11;82.97;99623.75;5028499;28;20021;-80
2023/01/03 00:06:37;;;;;;;3.85;1.98;;;;;;;7.99;82.59;99628.97;5028661;28;20116;-80
2023/01/03 00:09:07;;;;;;;6.15;2.47;;;;;;;8.09;83.00;99633.81;5013894;28;20513;-80
2023/01/03 00:14:22;;;;;;;5.18;2.05;;;;;;;7.98;83.99;99640.59;5023924;28;20144;-80
2023/01/03 00:16:50;;;;;;;5.60;2.20;;;;;;;8.13;82.91;99650.97;5027594;28;20033;-79
2023/01/03 00:19:15;;;;;;;6.53;2.72;;;;;;;8.23;83.10;99651.31;5022128;28;20025;-80
2023/01/03 00:21:41;;;;;;;2.60;2.20;;;;;;;8.25;82.57;99647.47;5019167;28;20422;-79
2023/01/03 00:24:07;;;;;;;3.80;2.40;;;;;;;8.04;82.63;99658.38;5024829;28;20056;-79
2023/01/03 00:26:33;;;;;;;4.10;3.03;;;;;;;8.01;81.98;99656.16;5026498;28;20039;-79
2023/01/03 00:28:59;;;;;;;2.55;1.88;;;;;;;8.32;82.24;99660.72;5008593;28;20037;-79
2023/01/03 00:31:25;;;;;;;9.10;3.40;;;;;;;8.18;83.04;99659.94;5021041;28;20037;-79
2023/01/03 00:33:51;;;;;;;4.03;1.95;;;;;;;8.19;82.03;99658.91;5025900;28;20109;-79
2023/01/03 00:36:16;;;;;;;3.13;2.10;;;;;;;8.04;82.48;99662.84;5028231;28;20128;-79
2023/01/03 00:38:42;;;;;;;5.15;2.25;;;;;;;7.91;82.65;99662.91;5010437;28;20034;-79
2023/01/03 00:41:10;;;;;;;5.90;2.60;;;;;;;8.04;83.04;99678.81;5025931;28;20064;-79
2023/01/03 00:43:37;;;;;;;5.35;3.00;;;;;;;7.73;81.68;99678.75;5024356;28;20038;-79
2023/01/03 00:46:03;;;;;;;4.38;2.30;;;;;;;8.11;83.32;99676.94;5010374;28;20030;-79
2023/01/03 00:48:29;;;;;;;6.60;2.45;;;;;;;8.00;83.46;99682.91;5010411;28;20041;-79
2023/01/03 00:50:55;;;;;;;4.80;2.95;;;;;;;7.52;81.77;99687.78;5013768;28;20029;-80
2023/01/03 00:53:21;;;;;;;9.50;2.83;;;;;;;7.51;85.25;99681.66;5026228;28;20091;-79
2023/01/03 00:55:47;;;;;;;7.18;2.45;;;;;;;7.68;84.14;99683.88;5023355;28;20079;-79
2023/01/03 00:58:13;;;;;;;4.32;2.33;;;;;;;8.27;83.39;99684.47;5024620;28;20037;-79
2023/01/03 01:00:38;;;;;;;2.72;2.22;;;;;;;8.40;82.32;99694.22;5030281;28;20033;-79
2023/01/03 01:03:04;;;;;;;4.15;2.75;;;;;;;7.66;85.00;99692.06;5025386;28;20029;-79
2023/01/03 01:05:30;;;;;;;4.47;2.63;;;;;;;7.71;85.58;99689.56;5009246;28;20473;-79
2023/01/03 01:07:56;;;;;;;3.80;3.50;;;;;;;7.61;85.50;99694.50;5010843;28;20171;-79
2023/01/03 01:10:21;;;;;;;7.40;4.25;;;;;;;8.14;82.51;99684.50;5023897;28;20021;-79
2023/01/03 01:12:47;;;;;;;4.07;3.20;;;;;;;8.54;82.30;99704.56;5026768;28;20037;-79
2023/01/03 01:15:13;;;;;;;3.95;2.90;;;;;;;8.10;83.96;99701.91;5025126;28;20049;-79
2023/01/03 01:17:39;;;;;;;9.00;4.07;;;;;;;7.64;84.20;99711.88;5026358;28;20108;-79
2023/01/03 01:20:05;;;;;;;9.55;4.63;;;;;;;8.01;83.82;99719.13;5030015;28;20057;-79
2023/01/03 01:22:30;;;;;;;4.30;2.90;;;;;;;8.51;82.79;99718.31;5028787;28;20025;-79
2023/01/03 01:24:55;;;;;;;4.82;3.28;;;;;;;8.76;82.38;99716.50;5027159;28;20037;-79
2023/01/03 01:27:21;;;;;;;6.70;3.75;;;;;;;8.53;82.95;99716.25;5021091;28;20121;-79
2023/01/03 01:29:46;;;;;;;8.80;4.40;;;;;;;8.36;82.96;99724.94;5027656;28;20392;-79
2023/01/03 01:32:12;;;;;;;3.22;2.90;;;;;;;8.51;82.69;99728.94;5023286;28;20037;-80
2023/01/03 01:34:37;;;;;;;8.43;4.50;;;;;;;7.99;84.39;99737.13;5020591;28;20026;-80
2023/01/03 01:37:03;;;;;;;6.00;3.80;;;;;;;8.50;84.18;99727.28;5020395;28;20029;-80
2023/01/03 01:39:29;;;;;;;5.20;3.42;;;;;;;8.65;82.50;99735.00;5030351;28;20033;-79
2023/01/03 01:44:54;;;;;;;4.65;3.65;;;;;;;8.80;82.21;99746.16;5030669;28;20118;-79
2023/01/03 01:47:23;;;;;;;7.45;4.25;;;;;;;8.35;83.04;99747.22;5026579;28;20072;-79
2023/01/03 01:49:54;;;;;;;6.90;4.78;;;;;;;8.26;82.48;99747.47;5025654;28;20112;-79
2023/01/03 01:52:20;;;;;;;8.25;4.47;;;;;;;8.50;81.44;99758.41;5026489;28;20036;-80
2023/01/03 01:54:48;;;;;;;5.88;4.15;;;;;;;8.08;83.59;99733.22;5041529;28;20084;-80
2023/01/03 01:57:17;;;;;;;11.27;4.72;;;;;;;8.40;83.56;99750.06;5028225;28;20460;-80
2023/01/03 01:59:43;;;;;;;6.60;4.00;;;;;;;8.32;82.27;99745.00;5031320;28;20037;-79
2023/01/03 02:02:09;;;;;;;6.88;5.55;;;;;;;8.15;82.51;99756.06;5008229;28;20075;-79
2023/01/03 02:04:38;;;;;;;6.35;4.00;;;;;;;8.68;81.99;99751.34;5017106;28;20034;-79
2023/01/03 02:07:05;;;;;;;10.18;5.53;;;;;;;8.11;80.96;99756.69;5029825;28;20477;-79
2023/01/03 02:09:33;;;;;;;7.35;4.47;;;;;;;8.59;82.03;99757.94;5012414;28;20412;-79
2023/01/03 02:15:01;;;;;;;7.20;4.07;;;;;;;8.30;83.56;99755.84;5028613;28;20132;-80
2023/01/03 02:17:58;;;;;;;5.97;4.13;;;;;;;7.90;83.81;99752.50;5021109;28;20029;-79
2023/01/03 02:21:18;;;;;;;7.05;4.30;;;;;;;8.17;84.33;99763.84;5013157;28;20043;-79
2023/01/03 02:23:55;;;;;;;4.97;3.97;;;;;;;8.51;81.36;99755.56;4969559;28;20109;-79
2023/01/03 02:26:49;;;;;;;7.20;3.85;;;;;;;8.39;81.10;99748.47;5021099;28;20053;-80
2023/01/03 02:29:44;;;;;;;4.65;3.80;;;;;;;8.54;82.35;99756.97;5024211;28;20599;-79
2023/01/03 02:32:18;;;;;;;6.05;3.92;;;;;;;8.53;82.21;99757.97;4985329;28;20045;-79
2023/01/03 02:35:01;;;;;;;4.50;3.95;;;;;;;8.52;81.79;99756.38;5025461;28;20397;-79
2023/01/03 02:37:26;;;;;;;5.80;4.20;;;;;;;8.54;80.52;99757.75;5024597;28;21371;-79
2023/01/03 02:40:03;;;;;;;6.25;4.85;;;;;;;8.49;81.58;99762.09;5020559;28;20029;-79
2023/01/03 02:45:17;;;;;;;6.22;4.32;;;;;;;8.49;81.00;99762.94;5027137;28;20092;-79
2023/01/03 02:48:24;;;;;;;5.57;4.53;;;;;;;8.57;81.39;99760.00;5017401;28;20568;-79
2023/01/03 02:50:54;;;;;;;5.70;4.82;;;;;;;8.40;81.04;99755.41;4982062;28;20034;-79
2023/01/03 02:53:26;;;;;;;5.13;4.55;;;;;;;8.38;80.96;99750.28;4969254;28;20050;-79
2023/01/03 02:55:57;;;;;;;6.47;4.63;;;;;;;8.55;80.63;99770.06;5005554;28;20038;-79
2023/01/03 02:58:26;;;;;;;7.97;4.32;;;;;;;8.45;81.66;99761.72;5025867;28;20484;-79
2023/01/03 03:00:55;;;;;;;8.95;5.03;;;;;;;8.53;80.63;99769.44;5037940;28;20021;-79
2023/01/03 03:03:29;;;;;;;5.38;4.55;;;;;;;8.47;81.18;99775.63;5023356;28;20037;-78
2023/01/03 03:06:16;;;;;;;6.25;4.85;;;;;;;8.47;81.35;99780.13;5023204;28;20035;-79
2023/01/03 03:08:46;;;;;;;8.05;5.30;;;;;;;8.53;80.70;99782.75;5020770;28;20040;-79
2023/01/03 03:14:04;;;;;;;6.95;4.82;;;;;;;8.51;80.37;99782.16;5027872;28;20048;-79
2023/01/03 03:16:48;;;;;;;9.85;6.38;;;;;;;8.40;80.77;99766.03;5026248;28;20493;-78
2023/01/03 03:25:00;;;;;;;12.00;6.15;;;;;;;8.24;81.19;99796.53;5025873;28;20036;-80
2023/01/03 03:30:37;;;;;;;8.95;5.88;;;;;;;8.13;81.37;99783.91;4959557;28;20038;-79
2023/01/03 03:33:05;;;;;;;8.38;5.32;;;;;;;8.10;81.59;99781.69;4962832;28;20402;-79
2023/01/03 03:35:40;;;;;;;7.45;5.57;;;;;;;8.22;81.53;99779.97;4985889;28;20107;-79
2023/01/03 03:38:10;;;;;;;6.82;4.70;;;;;;;8.20;81.36;99795.34;5040641;28;20564;-80
2023/01/03 03:46:26;;;;;;;6.65;4.72;;;;;;;8.17;81.38;99801.88;5028882;28;20084;-79
2023/01/03 03:52:00;;;;;;;9.00;4.18;;;;;;;8.10;80.71;99793.09;5026346;28;20079;-79
2023/01/03 03:54:28;;;;;;;7.75;4.70;;;;;;;8.20;81.28;99795.34;5029710;28;20033;-79
2023/01/03 03:57:01;;;;;;;4.88;3.92;;;;;;;8.38;80.89;99795.50;5025006;28;20029;-79
2023/01/03 03:59:29;;;;;;;6.93;4.82;;;;;;;8.24;80.54;99797.38;5023577;28;20571;-79
2023/01/03 04:01:58;;;;;;;8.68;5.25;;;;;;;8.29;80.46;99784.31;5023525;28;20046;-79
2023/01/03 04:04:31;;;;;;;7.07;4.55;;;;;;;8.23;80.94;99785.09;5006465;28;20048;-80
2023/01/03 04:06:57;;;;;;;8.50;4.30;;;;;;;8.21;80.61;99791.66;5010794;28;20041;-79
2023/01/03 04:09:22;;;;;;;6.10;3.85;;;;;;;8.11;81.24;99800.06;5029749;28;20124;-79
2023/01/03 04:11:48;;;;;;;4.60;3.83;;;;;;;7.76;81.93;99811.19;5022596;28;20048;-79
2023/01/03 04:14:13;;;;;;;7.60;4.75;;;;;;;7.95;81.97;99802.38;5027438;28;20057;-80
2023/01/03 04:16:39;;;;;;;4.85;3.70;;;;;;;8.00;81.26;99803.38;5022917;28;20029;-79
2023/01/03 04:19:05;;;;;;;8.10;4.45;;;;;;;7.88;81.31;99804.22;5005257;28;20042;-79
2023/01/03 04:21:31;;;;;;;7.15;4.38;;;;;;;8.05;80.47;99813.38;5021837;28;20033;-79
2023/01/03 04:23:57;;;;;;;6.18;4.25;;;;;;;7.63;80.11;99819.16;5026885;28;20029;-80
2023/01/03 04:26:22;;;;;;;5.93;3.63;;;;;;;7.86;80.63;99815.06;5027998;28;20029;-79
2023/01/03 04:28:47;;;;;;;5.97;4.65;;;;;;;8.02;80.71;99813.78;5006501;28;20034;-79
2023/01/03 04:31:13;;;;;;;6.53;4.18;;;;;;;7.93;80.69;99807.09;5021889;28;20040;-79
2023/01/03 04:33:38;;;;;;;4.38;3.47;;;;;;;8.21;80.08;99820.91;5027112;28;20029;-79
2023/01/03 04:36:04;;;;;;;6.25;3.95;;;;;;;8.16;80.13;99821.53;4990193;28;20037;-79
2023/01/03 04:38:29;;;;;;;4.82;3.55;;;;;;;8.02;79.87;99825.25;5020145;28;20056;-79
2023/01/03 04:40:54;;;;;;;6.68;3.72;;;;;;;7.73;79.93;99815.09;5023881;28;20041;-79
2023/01/03 04:46:04;;;;;;;5.78;3.97;;;;;;;7.90;80.34;99820.78;5023465;28;20136;-79
2023/01/03 04:48:29;;;;;;;5.28;4.28;;;;;;;7.90;79.69;99813.63;5024498;28;20116;-79
2023/01/03 04:50:57;;;;;;;5.53;3.80;;;;;;;7.91;79.91;99825.88;5020657;28;20113;-80
2023/01/03 04:53:24;;;;;;;4.50;3.70;;;;;;;7.77;79.89;99816.31;5026693;28;20120;-80
2023/01/03 04:55:51;;;;;;;7.95;4.43;;;;;;;7.58;80.84;99825.09;5030159;28;20594;-80
2023/01/03 04:58:17;;;;;;;6.35;4.38;;;;;;;7.04;81.72;99825.25;5025340;28;20021;-79
2023/01/03 05:00:42;;;;;;;5.75;3.83;;;;;;;7.30;81.68;99814.69;4992536;28;20045;-79
2023/01/03 05:03:08;;;;;;;10.77;4.20;;;;;;;7.12;80.69;99825.06;5026011;28;20071;-79
2023/01/03 05:05:36;;;;;;;3.92;3.50;;;;;;;7.62;81.16;99822.84;5024971;28;20292;-79
2023/01/03 05:08:06;;;;;;;9.88;4.28;;;;;;;7.91;80.46;99825.06;5026224;28;20026;-79
2023/01/03 05:10:31;;;;;;;6.15;3.80;;;;;;;7.58;79.78;99823.25;5009744;28;20041;-79
2023/01/03 05:13:00;;;;;;;5.68;4.00;;;;;;;7.85;79.42;99833.84;5007378;28;20120;-78
2023/01/03 05:15:27;;;;;;;7.10;5.13;;;;;;;7.94;79.59;99829.97;4992199;28;20120;-79
2023/01/03 05:17:52;;;;;;;7.07;4.10;;;;;;;7.86;80.04;99843.47;5024156;28;20022;-79
2023/01/03 05:25:48;;;;;;;5.38;4.05;;;;;;;7.75;80.04;99828.97;5023932;28;20939;-80
2023/01/03 05:28:14;;;;;;;3.95;3.55;;;;;;;7.94;79.71;99836.09;5024216;28;20052;-80
2023/01/03 05:30:40;;;;;;;6.38;4.32;;;;;;;8.03;79.24;99832.22;5026465;28;20076;-80
2023/01/03 05:33:05;;;;;;;3.72;3.25;;;;;;;8.05;79.06;99845.28;5025812;28;20037;-80
2023/01/03 05:35:30;;;;;;;4.05;3.65;;;;;;;8.08;80.03;99842.22;5020940;28;20037;-79
2023/01/03 05:37:56;;;;;;;5.43;4.20;;;;;;;8.12;78.76;99857.56;5024899;28;20076;-78
2023/01/03 05:40:21;;;;;;;7.18;3.85;;;;;;;8.08;78.84;99855.50;5025874;28;20025;-78
2023/01/03 05:42:46;;;;;;;5.32;4.18;;;;;;;7.77;79.52;99858.00;5023356;28;20030;-78
2023/01/03 05:45:12;;;;;;;6.00;3.88;;;;;;;7.75;79.95;99858.22;5026249;28;20037;-78
2023/01/03 05:47:37;;;;;;;4.55;3.70;;;;;;;7.80;79.91;99861.06;5006497;28;20044;-78
2023/01/03 05:50:03;;;;;;;6.40;4.60;;;;;;;7.36;80.11;99852.91;5018675;28;20129;-79
2023/01/03 05:52:28;;;;;;;4.97;4.10;;;;;;;7.33;81.12;99842.66;5009316;28;20400;-79
2023/01/03 05:54:54;;;;;;;6.97;5.05;;;;;;;7.45;79.78;99846.34;5010283;28;20037;-80
2023/01/03 05:57:19;;;;;;;4.40;4.00;;;;;;;7.71;80.72;99858.81;5008086;28;20477;-79
2023/01/03 05:59:44;;;;;;;6.28;4.57;;;;;;;7.61;79.89;99853.91;5026473;28;20129;-80
2023/01/03 06:02:10;;;;;;;8.80;4.30;;;;;;;7.76;80.41;99867.81;5024944;28;20512;-81
2023/01/03 06:04:35;;;;;;;4.97;3.90;;;;;;;7.82;79.44;99863.53;5028133;28;20036;-79
2023/01/03 06:07:01;;;;;;;4.55;4.03;;;;;;;7.89;79.71;99867.78;5028904;28;20033;-79
2023/01/03 06:09:26;;;;;;;10.55;6.50;;;;;;;7.83;78.97;99884.56;5010398;28;20033;-79
2023/01/03 06:11:52;;;;;;;6.18;4.18;;;;;;;7.45;80.00;99880.88;5027520;28;20060;-79
2023/01/03 06:14:18;;;;;;;7.93;5.13;;;;;;;7.49;80.38;99859.00;5010433;28;21601;-78
2023/01/03 06:19:28;;;;;;;5.85;4.50;;;;;;;7.83;79.10;99881.09;5025808;28;20056;-78
2023/01/03 06:21:54;;;;;;;7.65;5.00;;;;;;;7.81;79.04;99875.16;5008861;28;20377;-79
2023/01/03 06:24:19;;;;;;;5.60;4.57;;;;;;;7.70;79.44;99881.91;5027470;28;20520;-79
2023/01/03 06:26:44;;;;;;;10.32;5.03;;;;;;;7.70;78.69;99879.25;5011713;28;20057;-79
2023/01/03 06:29:10;;;;;;;5.57;4.78;;;;;;;7.26;80.61;99886.97;5024891;28;20470;-79
2023/01/03 06:31:36;;;;;;;7.55;5.43;;;;;;;7.63;79.07;99889.06;5024240;28;20037;-80
2023/01/03 06:34:02;;;;;;;6.47;5.05;;;;;;;7.63;78.90;99901.53;5009676;28;20033;-81
2023/01/03 06:36:27;;;;;;;8.85;6.43;;;;;;;7.45;78.44;99886.19;5043152;28;20087;-79
2023/01/03 06:38:53;;;;;;;6.72;5.60;;;;;;;7.50;78.85;99903.16;5025627;28;20034;-80
2023/01/03 06:41:19;;;;;;;7.00;4.93;;;;;;;7.61;78.65;99904.38;5023254;28;20033;-79
2023/01/03 06:43:44;;;;;;;11.88;5.72;;;;;;;7.46;79.22;99893.97;5025763;28;20124;-80
2023/01/03 06:54:32;;;;;;;8.43;5.90;;;;;;;6.98;80.06;99900.38;5022093;28;20052;-81
2023/01/03 06:56:58;;;;;;;6.85;5.45;;;;;;;6.96;80.12;99917.53;5006077;28;20041;-81
2023/01/03 06:59:24;;;;;;;6.95;5.43;;;;;;;6.84;80.26;99922.56;5023157;28;20412;-80
2023/01/03 07:01:51;;;;;;;7.53;5.82;;;;;;;7.02;79.29;99927.34;5016403;28;20025;-81
2023/01/03 07:04:17;;;;;;;8.95;5.85;;;;;;;7.06;79.79;99916.13;5021161;28;20041;-80
2023/01/03 07:06:43;;;;;;;8.18;5.35;;;;;;;6.98;79.57;99915.50;5007873;28;20159;-79
2023/01/03 07:09:09;;;;;;;9.98;6.53;;;;;;;6.77;79.68;99917.25;5024530;28;20112;-79
2023/01/03 07:11:35;;;;;;;11.10;6.63;;;;;;;6.25;81.28;99938.16;5018880;28;20032;-79
2023/01/03 07:14:02;;;;;;;10.95;6.78;;;;;;;6.91;79.16;99931.38;5021608;28;20036;-79
2023/01/03 07:16:42;;;;;;;12.05;6.70;;;;;;;6.31;81.29;99933.94;5025307;28;20358;-79
2023/01/03 07:19:11;;;;;;;11.98;7.75;;;;;;;6.63;79.81;99939.44;5009511;28;20199;-79
2023/01/03 07:21:37;;;;;;;12.80;7.10;;;;;;;6.61;80.01;99938.81;5020384;28;20018;-79
2023/01/03 07:24:04;;;;;;;10.00;6.55;;;;;;;6.57;79.16;99924.31;5023567;28;20090;-79
2023/01/03 07:26:32;;;;;;;13.73;6.30;;;;;;;6.66;79.56;99954.13;5024356;28;20021;-79
2023/01/03 07:28:59;;;;;;;11.30;6.28;;;;;;;6.56;79.17;99948.34;5044182;28;20187;-79
2023/01/03 07:31:24;;;;;;;7.80;6.68;;;;;;;6.67;79.17;99938.03;5035128;28;20041;-79
2023/01/03 07:33:51;;;;;;;10.90;5.63;;;;;;;6.72;78.69;99948.03;5008535;28;20025;-79
2023/01/03 07:36:18;;;;;;;8.52;6.38;;;;;;;6.87;78.30;99953.22;5024473;28;20041;-79
2023/01/03 07:38:44;;;;;;;7.35;6.00;;;;;;;6.71;78.14;99947.22;5028306;28;20045;-79
2023/01/03 07:41:12;;;;;;;8.20;6.05;;;;;;;6.55;78.90;99960.00;5024547;28;20096;-79
2023/01/03 07:43:40;;;;;;;11.75;5.78;;;;;;;6.54;78.33;99950.38;5025333;28;20037;-80
2023/01/03 07:46:07;;;;;;;10.32;5.90;;;;;;;6.44;79.16;99955.22;5028215;28;20028;-80
2023/01/03 07:48:34;;;;;;;8.48;6.00;;;;;;;6.46;79.47;99961.16;5023202;28;20036;-81
2023/01/03 07:51:00;;;;;;;7.00;5.40;;;;;;;6.48;78.91;99953.81;5024822;28;20029;-81
2023/01/03 07:53:25;;;;;;;7.57;5.63;;;;;;;6.37;79.58;99960.50;5038920;28;20026;-80
2023/01/03 07:55:50;;;;;;;9.43;5.53;;;;;;;6.33;78.68;99961.06;5024827;28;20044;-81
2023/01/03 07:58:16;;;;;;;7.53;5.43;;;;;;;6.37;78.51;99964.97;5021439;28;20033;-80
2023/01/03 08:00:41;;;;;;;7.47;5.88;;;;;;;6.28;79.15;99951.03;5024537;28;20044;-80
2023/01/03 08:03:08;;;;;;;7.72;5.38;;;;;;;6.25;78.93;99958.53;5010466;28;20032;-79
2023/01/03 08:05:36;;;;;;;7.03;5.22;;;;;;;6.26;79.01;99965.50;5008165;28;20409;-80
2023/01/03 08:08:03;;;;;;;10.00;5.63;;;;;;;6.34;79.01;99970.66;5025570;28;20389;-79
2023/01/03 08:13:18;;;;;;;7.47;6.45;;;;;;;6.22;78.68;99970.38;5022656;28;20037;-79
2023/01/03 08:15:49;;;;;;;6.97;5.90;;;;;;;6.37;78.69;99970.28;5022554;28;20021;-79
2023/01/03 08:18:18;;;;;;;9.48;6.00;;;;;;;6.33;78.97;99967.19;5021133;28;20033;-79
2023/01/03 08:20:43;;;;;;;7.18;5.70;;;;;;;6.39;78.44;99968.25;5024303;28;20060;-79
2023/01/03 08:23:09;;;;;;;9.00;5.63;;;;;;;6.36;79.08;99974.75;5026240;28;20652;-79
2023/01/03 08:25:35;;;;;;;10.45;6.88;;;;;;;5.69;79.46;99979.69;5023375;28;20028;-79
2023/01/03 08:28:01;;;;;;;10.95;7.60;;;;;;;5.42;79.16;99983.06;5009263;28;20059;-79
2023/01/03 08:30:27;;;;;;;15.35;8.48;;;;;;;4.94;81.26;99981.88;5006090;28;20029;-79
2023/01/03 08:32:54;;;;;;;10.25;7.25;;;;;;;5.59;82.23;99968.56;5024340;28;21490;-79
2023/01/03 08:35:21;;;;;;;10.90;6.68;;;;;;;6.11;80.39;99984.16;5023094;28;20405;-79
2023/01/03 08:37:47;;;;;;;9.57;6.60;;;;;;;5.90;81.06;99981.50;5022302;28;20041;-79
2023/01/03 08:40:16;;;;;;;11.57;7.55;;;;;;;6.23;79.41;99981.78;5024661;28;20083;-80
2023/01/03 08:42:43;;;;;;;11.32;6.63;;;;;;;6.39;79.32;99990.28;5025215;28;20029;-80
2023/01/03 08:45:11;;;;;;;9.50;5.85;;;;;;;6.36;78.86;99992.47;5003348;28;20038;-80
2023/01/03 08:47:37;;;;;;;10.50;8.07;;;;;;;6.28;78.88;99995.28;5036119;28;20083;-80
2023/01/03 08:50:03;;;;;;;6.88;5.75;;;;;;;5.45;80.99;99995.91;5023635;28;20754;-79
2023/01/03 08:52:29;;;;;;;10.70;7.03;;;;;;;5.91;80.71;99984.00;5024825;28;20036;-79
2023/01/03 08:54:55;;;;;;;10.68;7.95;;;;;;;4.93;82.42;100001.41;5021066;28;20037;-79
2023/01/03 08:57:20;;;;;;;9.55;7.43;;;;;;;4.89;82.88;99992.19;5022983;28;20030;-79
2023/01/03 08:59:46;;;;;;;13.65;8.18;;;;;;;4.31;85.21;99984.25;5001131;28;20038;-79
2023/01/03 09:02:11;;;;;;;10.70;7.07;;;;;;;4.27;86.44;99972.41;5016442;28;20037;-79
2023/01/03 09:04:36;;;;;;;12.90;9.35;;;;;;;4.31;85.85;100006.22;5013572;28;20086;-79
2023/01/03 09:07:02;;;;;;;14.65;9.70;;;;;;;4.25;86.76;99999.00;4993607;28;20120;-79
2023/01/03 09:09:27;;;;;;;11.45;8.95;;;;;;;4.07;87.82;100011.72;5005154;28;20106;-79
2023/01/03 09:11:53;;;;;;;13.23;8.82;;;;;;;3.69;88.62;100002.13;5004513;28;20045;-79
2023/01/03 09:14:18;;;;;;;14.35;8.18;;;;;;;3.95;88.60;100015.78;5012011;28;21947;-78
2023/01/03 09:16:44;;;;;;;21.63;9.55;;;;;;;3.98;88.25;100009.31;5005539;28;20037;-79
2023/01/03 09:19:09;;;;;;;13.15;8.18;;;;;;;3.99;88.71;100006.50;5002215;28;20397;-79
2023/01/03 09:21:35;;;;;;;11.30;8.82;;;;;;;3.89;89.70;100011.19;5008255;28;20081;-80
2023/01/03 09:24:00;;;;;;;15.15;8.85;;;;;;;4.86;86.69;100007.59;5020082;28;20040;-80
2023/01/03 09:26:25;;;;;;;9.32;7.28;;;;;;;5.15;86.74;100013.72;4975601;28;20037;-80
2023/01/03 09:28:51;;;;;;;9.55;6.43;;;;;;;5.87;83.52;100001.28;5021764;28;20034;-81
2023/01/03 09:31:16;;;;;;;16.27;9.65;;;;;;;4.95;85.22;100006.50;5008185;28;20125;-79
2023/01/03 09:33:42;;;;;;;9.65;7.10;;;;;;;5.11;86.59;100015.06;5009077;28;20056;-80
2023/01/03 09:36:07;;;;;;;16.45;10.00;;;;;;;4.63;87.25;100009.53;4992022;28;20036;-79
2023/01/03 09:38:33;;;;;;;10.70;7.47;;;;;;;5.46;85.50;100018.72;5008778;28;20037;-80
2023/01/03 09:41:06;;;;;;;13.88;7.43;;;;;;;5.79;83.92;100006.66;5014792;28;20130;-79
2023/01/03 09:43:39;;;;;;;9.80;6.07;;;;;;;5.92;82.59;100017.41;5012721;28;20103;-80
2023/01/03 09:46:10;;;;;;;9.68;6.72;;;;;;;5.94;82.58;100004.78;5014520;28;20386;-80
2023/01/03 09:48:38;;;;;;;8.25;7.15;;;;;;;6.18;82.07;100006.22;5009632;28;20079;-80
2023/01/03 10:03:42;;;;;;;10.00;7.00;;;;;;;6.06;82.28;100010.41;4997050;28;20399;-80
2023/01/03 10:05:31;;;;;;;7.28;5.13;;;;;;;5.95;84.33;100006.44;5016326;28;20164;-81
2023/01/03 10:08:03;;;;;;;8.05;6.22;;;;;;;5.83;84.32;100007.91;5011906;28;20041;-80
2023/01/03 10:10:37;;;;;;;16.30;8.25;;;;;;;5.76;84.77;100003.56;5012113;28;20792;-79
2023/01/03 10:14:04;;;;;;;8.32;6.47;;;;;;;5.79;84.93;100005.81;5012409;28;20038;-79
2023/01/03 10:16:57;;;;;;;8.55;6.05;;;;;;;6.04;83.80;100002.66;4948882;28;20299;-79
2023/01/03 10:19:39;;;;;;;10.77;5.78;;;;;;;5.89;83.83;100004.56;4945860;28;20037;-80
2023/01/03 10:22:17;;;;;;;6.95;4.97;;;;;;;5.93;84.41;99981.97;4999618;28;20037;-79
2023/01/03 10:24:54;;;;;;;8.00;4.95;;;;;;;5.69;85.54;99992.09;5015876;28;20078;-79
2023/01/03 10:27:23;;;;;;;9.07;4.50;;;;;;;5.71;86.43;99996.19;5012516;28;20029;-80
2023/01/03 10:29:52;;;;;;;7.30;4.35;;;;;;;6.03;84.50;100006.31;5013828;28;20126;-80
2023/01/03 10:32:27;;;;;;;7.53;4.72;;;;;;;5.97;84.70;99991.16;5016340;28;20037;-80
2023/01/03 10:35:19;;;;;;;5.93;3.92;;;;;;;6.02;85.01;100006.50;5024521;28;20121;-80
2023/01/03 10:37:44;;;;;;;5.72;3.03;;;;;;;6.12;84.47;100000.84;5034878;28;20497;-80
2023/01/03 10:40:12;;;;;;;10.77;4.65;;;;;;;6.19;84.05;100005.22;5008125;28;20040;-80
2023/01/03 10:42:39;;;;;;;6.82;3.33;;;;;;;6.17;84.82;99999.28;5022934;28;20036;-80
2023/01/03 10:45:19;;;;;;;4.65;3.22;;;;;;;6.20;85.32;100004.22;5017674;28;20501;-79
2023/01/03 10:48:05;;;;;;;6.40;3.03;;;;;;;6.15;84.66;100003.97;5024115;28;20638;-79
2023/01/03 10:50:36;;;;;;;4.97;3.10;;;;;;;6.17;84.82;100003.75;5018031;28;20034;-79
2023/01/03 10:53:08;;;;;;;6.25;3.10;;;;;;;6.09;86.48;100003.91;5004766;28;20033;-79
2023/01/03 10:55:43;;;;;;;7.85;2.70;;;;;;;6.09;86.38;100003.91;5040209;28;20041;-79
2023/01/03 10:58:25;;;;;;;4.65;3.58;;;;;;;6.29;85.27;99994.28;5020204;28;20142;-80
2023/01/03 11:00:53;;;;;;;4.10;3.05;;;;;;;6.22;84.83;99977.50;5021820;28;20045;-80
2023/01/03 11:03:24;;;;;;;4.65;2.20;;;;;;;6.22;85.62;99980.16;5022601;28;20362;-79
2023/01/03 11:06:07;;;;;;;3.03;2.60;;;;;;;6.39;85.35;99984.16;5004397;28;20067;-79
2023/01/03 11:08:58;;;;;;;6.00;2.72;;;;;;;6.27;85.08;99980.41;5023392;28;21061;-79
2023/01/03 11:11:35;;;;;;;4.75;2.63;;;;;;;6.48;85.49;99983.00;5017741;28;20029;-80
2023/01/03 11:14:18;;;;;;;9.65;2.55;;;;;;;6.42;85.45;99989.09;5014862;28;20087;-80
2023/01/03 11:16:43;;;;;;;4.25;2.53;;;;;;;6.37;86.06;99967.63;5011390;28;20504;-79
2023/01/03 11:19:16;;;;;;;4.32;2.53;;;;;;;6.56;85.29;99967.75;5006747;28;20076;-79
2023/01/03 11:21:49;;;;;;;4.47;2.53;;;;;;;6.42;86.41;99970.53;5010935;28;20026;-79
2023/01/03 11:24:32;;;;;;;6.50;2.88;;;;;;;6.47;86.23;99974.22;5015555;28;20098;-79
2023/01/03 11:27:15;;;;;;;5.05;2.55;;;;;;;6.64;86.10;99975.53;5002347;28;20057;-79
2023/01/03 11:29:43;;;;;;;3.83;2.75;;;;;;;6.54;85.81;99969.78;5012335;28;20045;-79
2023/01/03 11:32:27;;;;;;;7.68;2.60;;;;;;;6.55;85.71;99963.44;5011075;28;20045;-79
2023/01/03 11:35:01;;;;;;;2.97;2.15;;;;;;;6.63;86.11;99952.69;5022722;28;20037;-78
2023/01/03 11:37:48;;;;;;;3.85;2.00;;;;;;;6.55;86.82;99954.69;5018791;28;20654;-78
2023/01/03 11:40:30;;;;;;;2.30;2.10;;;;;;;6.66;85.72;99954.94;5014086;28;20041;-79
2023/01/03 11:43:34;;;;;;;6.60;2.53;;;;;;;6.72;84.55;99940.91;5020280;28;20041;-79
2023/01/03 11:46:24;;;;;;;4.30;2.28;;;;;;;6.75;85.04;99939.66;5008592;28;20037;-79
2023/01/03 11:49:08;;;;;;;6.40;1.85;;;;;;;6.82;84.66;99937.88;5004730;28;20037;-78
2023/01/03 11:51:52;;;;;;;3.28;2.08;;;;;;;6.58;86.61;99941.84;5008423;28;20036;-78
2023/01/03 11:54:41;;;;;;;4.35;2.17;;;;;;;6.92;84.44;99942.81;5009514;28;20079;-78
2023/01/03 11:57:39;;;;;;;2.00;1.80;;;;;;;7.19;84.64;99940.06;5002813;28;20033;-78
2023/01/03 12:00:21;;;;;;;2.63;2.17;;;;;;;6.93;84.00;99924.03;4995486;28;20045;-78
2023/01/03 12:03:11;;;;;;;5.18;1.80;;;;;;;7.29;84.65;99937.03;5005730;28;20670;-80
2023/01/03 12:05:54;;;;;;;1.80;1.70;;;;;;;7.26;84.63;99932.13;5001167;28;20069;-78
2023/01/03 12:08:30;;;;;;;4.10;2.45;;;;;;;6.97;83.93;99925.28;5003985;28;20030;-78
2023/01/03 12:11:23;;;;;;;4.82;2.22;;;;;;;7.26;85.26;99927.63;5012736;28;20025;-79
2023/01/03 12:14:10;;;;;;;5.85;2.40;;;;;;;7.30;84.50;99923.53;5007042;28;20033;-79
2023/01/03 12:16:54;;;;;;;3.63;1.90;;;;;;;7.21;84.09;99923.91;5005037;28;20728;-79
2023/01/03 12:19:36;;;;;;;6.15;2.45;;;;;;;7.42;84.73;99913.97;5011343;28;20041;-80
2023/01/03 12:22:06;;;;;;;2.75;1.90;;;;;;;7.71;83.75;99933.22;5007226;28;20036;-79
2023/01/03 12:24:53;;;;;;;2.40;1.85;;;;;;;7.76;83.34;99925.44;5005337;28;20029;-79
2023/01/03 12:27:31;;;;;;;6.72;2.08;;;;;;;7.34;83.23;99929.25;5010491;28;20624;-79
2023/01/03 12:30:04;;;;;;;2.25;2.05;;;;;;;7.61;84.12;99924.81;5022979;28;20035;-78
2023/01/03 12:32:43;;;;;;;4.15;2.47;;;;;;;7.66;84.29;99925.88;5013689;28;20041;-79
2023/01/03 12:35:27;;;;;;;5.32;2.22;;;;;;;7.98;83.11;99926.88;5010917;28;20033;-78
2023/01/03 12:37:55;;;;;;;2.33;2.13;;;;;;;8.03;82.27;99929.75;5011059;28;20033;-79
2023/01/03 12:40:44;;;;;;;4.32;2.25;;;;;;;8.09;82.09;99923.59;4994841;28;20029;-78
2023/01/03 12:43:23;;;;;;;3.40;2.40;;;;;;;8.25;82.12;99917.88;5009284;28;20040;-79
2023/01/03 12:45:56;;;;;;;5.25;2.55;;;;;;;8.16;82.79;99922.59;5013441;28;20410;-78
2023/01/03 12:48:30;;;;;;;2.78;2.58;;;;;;;8.31;82.87;99919.72;5013957;28;20032;-79
2023/01/03 12:50:55;;;;;;;4.45;2.20;;;;;;;8.24;82.06;99903.75;5012740;28;20090;-79
2023/01/03 12:53:32;;;;;;;3.60;2.38;;;;;;;8.05;82.53;99909.91;4997909;28;20120;-79
2023/01/03 12:56:33;;;;;;;6.38;3.05;;;;;;;7.94;81.60;99907.06;5014296;28;20029;-78
2023/01/03 12:59:19;;;;;;;5.63;2.10;;;;;;;8.10;82.63;99901.31;5011682;28;20174;-79
2023/01/03 13:01:53;;;;;;;5.85;2.30;;;;;;;7.98;83.17;99905.63;5008728;28;20056;-79